createdAt,value
2018-01-10T00:07:13.823Z,0
2018-01-10T00:07:54.381Z,0
2018-01-10T00:08:34.956Z,0
2018-01-10T00:09:15.461Z,0
2018-01-10T00:09:55.990Z,0
2018-01-10T00:10:36.596Z,0
2018-01-10T00:11:17.090Z,0
2018-01-10T00:11:57.652Z,0
2018-01-10T00:13:42.058Z,0
2018-01-10T00:14:22.601Z,0
2018-01-10T00:15:03.102Z,0
2018-01-10T00:15:43.691Z,0
2018-01-10T00:16:24.332Z,0
2018-01-10T00:17:04.885Z,0
2018-01-10T00:17:45.511Z,0
2018-01-10T00:18:26.110Z,0
2018-01-10T00:19:06.714Z,0
2018-01-10T00:19:47.241Z,0
2018-01-10T00:20:27.780Z,0
2018-01-10T00:21:08.347Z,0
2018-01-10T00:21:48.948Z,0
2018-01-10T00:22:29.424Z,0
2018-01-10T00:23:09.971Z,0
2018-01-10T00:23:50.495Z,0
2018-01-10T00:24:31.070Z,0
2018-01-10T00:25:11.640Z,0
2018-01-10T00:25:52.410Z,0
2018-01-10T00:26:32.930Z,0
2018-01-10T00:27:14.388Z,0
2018-01-10T00:27:54.872Z,0
2018-01-10T00:28:35.428Z,0
2018-01-10T00:29:15.936Z,0
2018-01-10T00:29:56.534Z,0
2018-01-10T00:30:36.992Z,0
2018-01-10T00:31:17.759Z,0
2018-01-10T00:31:58.393Z,0
2018-01-10T00:32:39.086Z,0
2018-01-10T00:33:19.603Z,0
2018-01-10T00:34:00.115Z,0
2018-01-10T00:34:40.578Z,0
2018-01-10T00:35:21.784Z,0
2018-01-10T00:36:02.280Z,0
2018-01-10T00:36:42.849Z,0
2018-01-10T00:37:23.359Z,0
2018-01-10T00:38:03.906Z,0
2018-01-10T00:38:44.488Z,0
2018-01-10T00:39:24.997Z,0
2018-01-10T00:40:05.523Z,0
2018-01-10T00:40:46.124Z,0
2018-01-10T00:41:26.670Z,0
2018-01-10T00:42:07.354Z,0
2018-01-10T00:42:47.787Z,0
2018-01-10T00:43:28.372Z,0
2018-01-10T00:44:08.909Z,0
2018-01-10T00:44:49.473Z,0
2018-01-10T00:45:29.964Z,0
2018-01-10T00:46:10.576Z,0
2018-01-10T00:46:51.152Z,0
2018-01-10T00:47:57.225Z,0
2018-01-10T00:48:42.285Z,0
2018-01-10T00:49:28.535Z,0
2018-01-10T00:50:27.471Z,0
2018-01-10T00:51:13.206Z,0
2018-01-10T00:51:58.476Z,0
2018-01-10T00:52:51.311Z,0
2018-01-10T00:55:35.419Z,0
2018-01-10T00:56:26.249Z,0
2018-01-10T00:57:22.330Z,0
2018-01-10T00:58:12.302Z,0
2018-01-10T00:59:02.556Z,0
2018-01-10T00:59:58.511Z,0
2018-01-10T01:00:48.791Z,0
2018-01-10T01:01:40.776Z,0
2018-01-10T01:04:31.247Z,0
2018-01-10T01:05:49.610Z,0
2018-01-10T01:06:38.964Z,0
2018-01-10T01:07:33.667Z,0
2018-01-10T01:08:26.480Z,0
2018-01-10T01:15:51.477Z,0
2018-01-10T01:17:22.419Z,0
2018-01-10T01:18:02.960Z,0
2018-01-10T01:18:43.507Z,0
2018-01-10T01:19:24.010Z,0
2018-01-10T01:20:04.651Z,0
2018-01-10T01:21:25.662Z,0
2018-01-10T01:22:06.295Z,0
2018-01-10T01:37:10.737Z,0
2018-01-10T01:41:23.669Z,0
2018-01-10T01:47:55.438Z,0
2018-01-10T01:53:57.411Z,0
2018-01-10T02:00:17.618Z,0
2018-01-10T02:01:07.158Z,0
2018-01-10T02:01:58.666Z,0
2018-01-10T02:10:44.028Z,0
2018-01-10T02:11:47.735Z,0
2018-01-10T02:15:35.238Z,0
2018-01-10T02:23:01.328Z,0
2018-01-10T02:23:52.537Z,0
2018-01-10T02:31:57.830Z,0
2018-01-10T02:33:39.831Z,0
2018-01-10T02:34:34.830Z,0
2018-01-10T02:51:52.774Z,0
2018-01-10T02:54:24.096Z,0
2018-01-10T02:55:15.790Z,0
2018-01-10T03:01:31.513Z,0
2018-01-10T03:02:23.984Z,0
2018-01-10T03:14:12.545Z,0
2018-01-10T03:28:32.658Z,0
2018-01-10T03:43:11.449Z,0
2018-01-10T03:47:36.977Z,0
2018-01-10T03:50:08.494Z,0
2018-01-10T03:56:40.620Z,0
2018-01-10T03:57:23.257Z,0
2018-01-10T03:58:03.730Z,0
2018-01-10T03:58:44.375Z,0
2018-01-10T03:59:25.122Z,0
2018-01-10T04:00:05.611Z,0
2018-01-10T04:00:46.158Z,0
2018-01-10T04:01:29.698Z,0
2018-01-10T06:28:49.854Z,0
2018-01-10T06:29:42.407Z,0
2018-01-10T06:53:13.924Z,0
2018-01-10T07:05:45.074Z,0
2018-01-10T07:13:06.822Z,0
2018-01-10T07:13:51.208Z,0
2018-01-10T07:14:31.946Z,0
2018-01-10T07:49:19.262Z,10
2018-01-10T07:59:31.590Z,15
2018-01-10T08:00:12.028Z,15
2018-01-10T08:00:52.650Z,20
2018-01-10T08:16:27.247Z,30
2018-01-10T08:28:40.238Z,35
2018-01-10T08:30:18.200Z,35
2018-01-10T08:31:08.531Z,35
2018-01-10T08:32:01.576Z,40
2018-01-10T08:51:45.559Z,60
2018-01-10T08:58:45.040Z,70
2018-01-10T08:59:33.893Z,70
2018-01-10T09:06:08.042Z,70
2018-01-10T09:06:58.039Z,75
2018-01-10T09:21:12.281Z,80
2018-01-10T09:22:07.184Z,80
2018-01-10T09:22:50.341Z,80
2018-01-10T09:23:39.106Z,80
2018-01-10T09:26:33.183Z,80
2018-01-10T09:27:25.655Z,80
2018-01-10T09:28:10.674Z,75
2018-01-10T09:28:59.628Z,75
2018-01-10T09:29:50.815Z,75
2018-01-10T09:30:40.153Z,75
2018-01-10T09:31:29.238Z,75
2018-01-10T09:37:34.272Z,75
2018-01-10T09:40:35.091Z,75
2018-01-10T09:48:38.890Z,80
2018-01-10T09:49:27.378Z,85
2018-01-10T09:50:15.949Z,85
2018-01-10T09:51:05.200Z,85
2018-01-10T09:51:55.137Z,85
2018-01-10T09:52:44.791Z,85
2018-01-10T10:03:12.761Z,80
2018-01-10T10:07:50.037Z,75
2018-01-10T10:08:43.783Z,75
2018-01-10T10:11:28.026Z,75
2018-01-10T10:14:24.850Z,85
2018-01-10T10:15:19.761Z,80
2018-01-10T10:19:23.407Z,85
2018-01-10T10:23:49.664Z,85
2018-01-10T10:24:36.927Z,80
2018-01-10T10:25:28.038Z,80
2018-01-10T10:29:48.276Z,75
2018-01-10T10:33:24.206Z,70
2018-01-10T10:36:11.552Z,70
2018-01-10T10:37:02.140Z,65
2018-01-10T10:37:50.795Z,65
2018-01-10T10:38:41.094Z,65
2018-01-10T10:39:30.142Z,65
2018-01-10T10:40:20.085Z,65
2018-01-10T10:45:31.691Z,65
2018-01-10T10:57:47.801Z,80
2018-01-10T11:00:07.679Z,75
2018-01-10T11:00:56.557Z,75
2018-01-10T11:01:46.220Z,80
2018-01-10T11:14:46.417Z,80
2018-01-10T11:20:33.821Z,80
2018-01-10T11:21:23.536Z,80
2018-01-10T11:32:57.634Z,80
2018-01-10T11:35:41.639Z,75
2018-01-10T11:39:23.334Z,80
2018-01-10T11:41:59.901Z,80
2018-01-10T11:42:49.188Z,75
2018-01-10T11:43:41.760Z,75
2018-01-10T11:47:36.558Z,80
2018-01-10T12:00:48.959Z,85
2018-01-10T12:16:29.869Z,80
2018-01-10T12:29:24.290Z,75
2018-01-10T12:30:13.845Z,75
2018-01-10T12:31:07.819Z,75
2018-01-10T12:33:56.368Z,75
2018-01-10T12:34:45.227Z,75
2018-01-10T12:39:32.643Z,70
2018-01-10T12:43:24.224Z,70
2018-01-10T12:49:49.625Z,80
2018-01-10T12:50:38.334Z,80
2018-01-10T12:51:27.325Z,80
2018-01-10T12:52:16.207Z,80
2018-01-10T12:53:04.592Z,75
2018-01-10T12:53:56.368Z,70
2018-01-10T12:54:42.886Z,70
2018-01-10T12:55:31.747Z,65
2018-01-10T12:56:20.723Z,60
2018-01-10T12:57:15.735Z,55
2018-01-10T12:57:58.201Z,55
2018-01-10T13:03:24.688Z,50
2018-01-10T13:04:13.557Z,50
2018-01-10T13:08:26.105Z,55
2018-01-10T13:11:13.647Z,60
2018-01-10T13:12:13.619Z,55
2018-01-10T13:21:54.765Z,50
2018-01-10T13:26:20.817Z,45
2018-01-10T13:41:26.291Z,40
2018-01-10T13:45:11.892Z,45
2018-01-10T13:52:00.770Z,50
2018-01-10T13:52:52.107Z,50
2018-01-10T13:58:03.922Z,50
2018-01-10T13:58:46.536Z,50
2018-01-10T14:01:16.974Z,50
2018-01-10T14:02:05.882Z,50
2018-01-10T14:25:24.393Z,40
2018-01-10T14:26:15.142Z,40
2018-01-10T14:34:56.267Z,40
2018-01-10T15:13:18.202Z,10
2018-01-10T15:18:26.199Z,10
2018-01-10T15:19:21.952Z,10
2018-01-10T15:20:23.805Z,10
2018-01-10T15:32:31.168Z,5
2018-01-10T15:33:11.036Z,5
2018-01-10T15:33:51.521Z,5
2018-01-10T17:28:38.378Z,0
2018-01-10T17:29:19.337Z,0
2018-01-10T17:30:00.367Z,0
2018-01-10T17:30:40.896Z,0
2018-01-10T17:31:21.485Z,0
2018-01-10T17:32:02.026Z,0
2018-01-10T17:32:42.598Z,0
2018-01-10T17:33:23.118Z,0
2018-01-10T17:34:03.591Z,0
2018-01-10T17:34:44.135Z,0
2018-01-10T17:35:24.886Z,0
2018-01-10T17:36:05.302Z,0
2018-01-10T17:36:45.821Z,0
2018-01-10T17:37:26.426Z,0
2018-01-10T17:38:06.903Z,0
2018-01-10T17:38:47.465Z,0
2018-01-10T17:39:27.986Z,0
2018-01-10T17:40:08.674Z,0
2018-01-10T17:40:49.233Z,0
2018-01-10T17:41:29.744Z,0
2018-01-10T17:42:10.240Z,0
2018-01-10T17:42:50.770Z,0
2018-01-10T17:43:31.437Z,0
2018-01-10T17:44:12.003Z,0
2018-01-10T17:44:52.513Z,0
2018-01-10T17:45:33.048Z,0
2018-01-10T17:46:13.567Z,0
2018-01-10T17:46:54.144Z,0
2018-01-10T17:47:34.650Z,0
2018-01-10T17:48:15.235Z,0
2018-01-10T17:48:55.784Z,0
2018-01-10T17:49:36.393Z,0
2018-01-10T17:50:16.865Z,0
2018-01-10T17:50:57.550Z,0
2018-01-10T17:51:38.109Z,0
2018-01-10T17:52:18.732Z,0
2018-01-10T17:52:59.234Z,0
2018-01-10T17:53:39.780Z,0
2018-01-10T17:54:20.308Z,0
2018-01-10T17:55:00.858Z,0
2018-01-10T17:55:41.421Z,0
2018-01-10T17:56:21.965Z,0
2018-01-10T17:57:02.497Z,0
2018-01-10T17:57:43.010Z,0
2018-01-10T17:58:23.606Z,0
2018-01-10T17:59:04.155Z,0
2018-01-10T17:59:44.629Z,0
2018-01-10T18:00:25.135Z,0
2018-01-10T18:01:05.665Z,0
2018-01-10T18:01:46.207Z,0
2018-01-10T18:02:26.953Z,0
2018-01-10T18:03:07.447Z,0
2018-01-10T18:03:47.966Z,0
2018-01-10T18:04:28.505Z,0
2018-01-10T18:05:09.038Z,0
2018-01-10T18:05:49.586Z,0
2018-01-10T18:06:30.131Z,0
2018-01-10T18:07:10.695Z,0
2018-01-10T18:07:51.239Z,0
2018-01-10T18:08:31.753Z,0
2018-01-10T18:09:12.307Z,0
2018-01-10T18:09:52.897Z,0
2018-01-10T18:10:33.429Z,0
2018-01-10T18:11:13.995Z,0
2018-01-10T18:11:54.540Z,0
2018-01-10T18:12:35.071Z,0
2018-01-10T18:13:15.819Z,0
2018-01-10T18:13:56.443Z,0
2018-01-10T18:14:38.151Z,0
2018-01-10T18:15:18.862Z,0
2018-01-10T18:15:59.444Z,0
2018-01-10T18:16:39.929Z,0
2018-01-10T18:17:20.455Z,0
2018-01-10T18:18:00.987Z,0
2018-01-10T18:18:41.551Z,0
2018-01-10T18:19:22.101Z,0
2018-01-10T18:20:02.666Z,0
2018-01-10T18:20:43.171Z,0
2018-01-10T18:21:23.749Z,0
2018-01-10T18:22:04.231Z,0
2018-01-10T18:22:44.809Z,0
2018-01-10T18:23:25.351Z,0
2018-01-10T18:24:05.848Z,0
2018-01-10T18:24:46.360Z,0
2018-01-10T18:25:26.927Z,0
2018-01-10T18:26:07.449Z,0
2018-01-10T18:26:47.956Z,0
2018-01-10T18:27:28.508Z,0
2018-01-10T18:28:09.051Z,0
2018-01-10T18:28:49.611Z,0
2018-01-10T18:29:30.149Z,0
2018-01-10T18:30:10.717Z,0
2018-01-10T18:30:51.207Z,0
2018-01-10T18:31:31.753Z,0
2018-01-10T18:32:12.300Z,0
2018-01-10T18:32:53.115Z,0
2018-01-10T18:33:33.875Z,0
2018-01-10T18:35:47.453Z,0
2018-01-10T18:36:28.075Z,0
2018-01-10T18:37:08.897Z,0
2018-01-10T18:37:49.478Z,0
2018-01-10T18:38:29.984Z,0
2018-01-10T18:39:10.712Z,0
2018-01-10T18:39:51.394Z,0
2018-01-10T18:40:32.072Z,0
2018-01-10T18:41:12.859Z,0
2018-01-10T18:41:53.546Z,0
2018-01-10T18:42:34.172Z,0
2018-01-10T18:43:14.785Z,0
2018-01-10T18:43:55.318Z,0
2018-01-10T18:44:36.413Z,0
2018-01-10T18:45:16.977Z,0
2018-01-10T18:45:57.720Z,0
2018-01-10T18:46:38.318Z,0
2018-01-10T18:47:19.229Z,0
2018-01-10T18:47:59.993Z,0
2018-01-10T18:48:40.468Z,0
2018-01-10T18:49:21.196Z,0
2018-01-10T18:50:01.796Z,0
2018-01-10T18:50:42.335Z,0
2018-01-10T18:51:22.860Z,0
2018-01-10T18:52:03.601Z,0
2018-01-10T18:52:44.097Z,0
2018-01-10T18:53:24.677Z,0
2018-01-10T18:54:05.235Z,0
2018-01-10T18:54:45.846Z,0
2018-01-10T18:55:26.571Z,0
2018-01-10T18:56:07.169Z,0
2018-01-10T18:56:47.653Z,0
2018-01-10T18:57:28.304Z,0
2018-01-10T18:58:08.869Z,0
2018-01-10T18:58:49.361Z,0
2018-01-10T18:59:30.108Z,0
2018-01-10T19:00:10.668Z,0
2018-01-10T19:00:51.221Z,0
2018-01-10T19:01:31.722Z,0
2018-01-10T19:02:12.558Z,0
2018-01-10T19:02:53.062Z,0
2018-01-10T19:03:33.616Z,0
2018-01-10T19:04:14.150Z,0
2018-01-10T19:04:54.685Z,0
2018-01-10T19:05:35.254Z,0
2018-01-10T19:06:15.761Z,0
2018-01-10T19:06:56.371Z,0
2018-01-10T19:07:36.953Z,0
2018-01-10T19:08:17.469Z,0
2018-01-10T19:08:58.073Z,0
2018-01-10T19:09:38.555Z,0
2018-01-10T19:10:19.230Z,0
2018-01-10T19:10:59.774Z,0
2018-01-10T19:11:40.352Z,0
2018-01-10T19:12:20.924Z,0
2018-01-10T19:13:01.475Z,0
2018-01-10T19:13:42.009Z,0
2018-01-10T19:14:22.532Z,0
2018-01-10T19:15:03.129Z,0
2018-01-10T19:15:43.610Z,0
2018-01-10T19:16:24.204Z,0
2018-01-10T19:17:04.680Z,0
2018-01-10T19:17:45.273Z,0
2018-01-10T19:18:25.851Z,0
2018-01-10T19:19:06.332Z,0
2018-01-10T19:19:46.895Z,0
2018-01-10T19:20:27.503Z,0
2018-01-10T19:21:07.989Z,0
2018-01-10T19:21:48.567Z,0
2018-01-10T19:22:29.065Z,0
2018-01-10T19:23:09.581Z,0
2018-01-10T19:23:50.215Z,0
2018-01-10T19:24:30.697Z,0
2018-01-10T19:25:11.221Z,0
2018-01-10T19:25:51.794Z,0
2018-01-10T19:26:32.370Z,0
2018-01-10T19:27:12.885Z,0
2018-01-10T19:27:53.501Z,0
2018-01-10T19:28:34.026Z,0
2018-01-10T19:29:14.573Z,0
2018-01-10T19:29:55.131Z,0
2018-01-10T19:30:35.682Z,0
2018-01-10T19:31:16.280Z,0
2018-01-10T19:31:56.814Z,0
2018-01-10T19:32:37.360Z,0
2018-01-10T19:33:18.031Z,0
2018-01-10T19:33:58.551Z,0
2018-01-10T19:34:39.037Z,0
2018-01-10T19:35:19.617Z,0
2018-01-10T19:36:00.148Z,0
2018-01-10T19:36:40.662Z,0
2018-01-10T19:37:21.213Z,0
2018-01-10T19:38:01.763Z,0
2018-01-10T19:38:42.284Z,0
2018-01-10T19:39:22.841Z,0
2018-01-10T19:40:03.395Z,0
2018-01-10T19:40:43.959Z,0
2018-01-10T19:41:24.508Z,0
2018-01-10T19:42:05.098Z,0
2018-01-10T19:42:45.615Z,0
2018-01-10T19:43:26.189Z,0
2018-01-10T19:44:06.730Z,0
2018-01-10T19:44:47.289Z,0
2018-01-10T19:45:27.908Z,0
2018-01-10T19:46:08.418Z,0
2018-01-10T19:46:49.010Z,0
2018-01-10T19:47:29.586Z,0
2018-01-10T19:48:10.124Z,0
2018-01-10T19:48:50.679Z,0
2018-01-10T19:49:31.137Z,0
2018-01-10T19:50:11.730Z,0
2018-01-10T19:50:52.329Z,0
2018-01-10T19:51:32.754Z,0
2018-01-10T19:52:13.324Z,0
2018-01-10T19:52:53.852Z,0
2018-01-10T19:53:34.488Z,0
2018-01-10T19:54:15.007Z,0
2018-01-10T19:54:55.845Z,0
2018-01-10T19:55:36.408Z,0
2018-01-10T19:56:16.945Z,0
2018-01-10T19:56:57.513Z,0
2018-01-10T19:57:38.053Z,0
2018-01-10T19:58:18.671Z,0
2018-01-10T19:58:59.156Z,0
2018-01-10T19:59:39.704Z,0
2018-01-10T20:00:20.279Z,0
2018-01-10T20:01:00.885Z,0
2018-01-10T20:01:41.440Z,0
2018-01-10T20:02:22.047Z,0
2018-01-10T20:03:02.646Z,0
2018-01-10T20:03:43.172Z,0
2018-01-10T20:04:23.770Z,0
2018-01-10T20:05:04.639Z,0
2018-01-10T20:05:45.734Z,0
2018-01-10T20:06:26.668Z,0
2018-01-10T20:07:07.381Z,0
2018-01-10T20:07:48.194Z,0
2018-01-10T20:08:30.626Z,0
2018-01-10T20:09:10.234Z,0
2018-01-10T20:09:51.129Z,0
2018-01-10T20:10:34.122Z,0
2018-01-10T20:11:15.015Z,0
2018-01-10T20:11:56.110Z,0
2018-01-10T20:12:38.844Z,0
2018-01-10T20:13:20.513Z,0
2018-01-10T20:14:02.834Z,0
2018-01-10T20:14:43.887Z,0
2018-01-10T20:15:25.013Z,0
2018-01-10T20:16:05.831Z,0
2018-01-10T20:16:46.516Z,0
2018-01-10T20:17:27.734Z,0
2018-01-10T20:18:09.568Z,0
2018-01-10T20:18:50.961Z,0
2018-01-10T20:19:33.684Z,0
2018-01-10T20:20:16.123Z,0
2018-01-10T20:20:58.062Z,0
2018-01-10T20:21:40.507Z,0
2018-01-10T20:22:21.525Z,0
2018-01-10T20:23:02.675Z,0
2018-01-10T20:23:43.192Z,0
2018-01-10T20:24:23.776Z,0
2018-01-10T20:25:04.383Z,0
2018-01-10T20:25:44.919Z,0
2018-01-10T20:26:25.496Z,0
2018-01-10T20:27:06.164Z,0
2018-01-10T20:27:46.918Z,0
2018-01-10T20:28:27.421Z,0
2018-01-10T20:29:08.023Z,0
2018-01-10T20:29:48.485Z,0
2018-01-10T20:30:29.051Z,0
2018-01-10T20:31:09.600Z,0
2018-01-10T20:31:50.153Z,0
2018-01-10T20:32:30.857Z,0
2018-01-10T20:33:11.397Z,0
2018-01-10T20:33:52.007Z,0
2018-01-10T20:34:32.501Z,0
2018-01-10T20:35:13.021Z,0
2018-01-10T20:35:53.569Z,0
2018-01-10T20:36:34.112Z,0
2018-01-10T20:37:14.668Z,0
2018-01-10T20:37:55.199Z,0
2018-01-10T20:38:35.710Z,0
2018-01-10T20:39:16.310Z,0
2018-01-10T20:39:56.875Z,0
2018-01-10T20:40:37.366Z,0
2018-01-10T20:41:18.008Z,0
2018-01-10T20:41:58.643Z,0
2018-01-10T20:42:39.169Z,0
2018-01-10T20:43:19.732Z,0
2018-01-10T20:44:00.273Z,0
2018-01-10T20:44:40.988Z,0
2018-01-10T20:45:21.438Z,0
2018-01-10T20:46:02.507Z,0
2018-01-10T20:46:42.563Z,0
2018-01-10T20:47:23.115Z,0
2018-01-10T20:48:03.679Z,0
2018-01-10T20:48:44.233Z,0
2018-01-10T20:49:24.790Z,0
2018-01-10T20:50:05.361Z,0
2018-01-10T20:50:45.907Z,0
2018-01-10T20:51:26.438Z,0
2018-01-10T20:52:07.642Z,0
2018-01-10T20:52:48.212Z,0
2018-01-10T20:53:29.009Z,0
2018-01-10T20:54:10.492Z,0
2018-01-10T20:54:51.962Z,0
2018-01-10T20:55:32.612Z,0
2018-01-10T20:56:13.149Z,0
2018-01-10T20:56:53.960Z,0
2018-01-10T20:57:34.588Z,0
2018-01-10T20:58:15.149Z,0
2018-01-10T20:58:55.764Z,0
2018-01-10T20:59:36.535Z,0
2018-01-10T21:00:16.911Z,0
2018-01-10T21:00:57.524Z,0
2018-01-10T21:01:38.134Z,0
2018-01-10T21:02:53.767Z,0
2018-01-10T21:03:34.341Z,0
2018-01-10T21:04:14.903Z,0
2018-01-10T21:04:55.420Z,0
2018-01-10T21:05:35.979Z,0
2018-01-10T21:06:16.626Z,0
2018-01-10T21:06:57.189Z,0
2018-01-10T21:07:37.761Z,0
2018-01-10T21:08:18.293Z,0
2018-01-10T21:08:58.857Z,0
2018-01-10T21:09:39.436Z,0
2018-01-10T21:10:20.052Z,0
2018-01-10T21:11:00.519Z,0
2018-01-10T21:11:41.089Z,0
2018-01-10T21:12:21.549Z,0
2018-01-10T21:13:02.168Z,0
2018-01-10T21:13:42.696Z,0
2018-01-10T21:14:23.341Z,0
2018-01-10T21:15:03.856Z,0
2018-01-10T21:15:44.445Z,0
2018-01-10T21:16:25.053Z,0
2018-01-10T21:17:05.579Z,0
2018-01-10T21:17:46.114Z,0
2018-01-10T21:18:26.665Z,0
2018-01-10T21:19:07.177Z,0
2018-01-10T21:19:47.788Z,0
2018-01-10T21:20:28.319Z,0
2018-01-10T21:21:09.021Z,0
2018-01-10T21:21:49.602Z,0
2018-01-10T21:22:30.117Z,0
2018-01-10T21:23:10.654Z,0
2018-01-10T21:23:51.244Z,0
2018-01-10T21:24:31.832Z,0
2018-01-10T21:25:12.376Z,0
2018-01-10T21:25:53.059Z,0
2018-01-10T21:26:33.586Z,0
2018-01-10T21:27:14.159Z,0
2018-01-10T21:27:54.725Z,0
2018-01-10T21:28:35.226Z,0
2018-01-10T21:29:15.826Z,0
2018-01-10T21:29:56.385Z,0
2018-01-10T21:30:36.982Z,0
2018-01-10T21:31:17.756Z,0
2018-01-10T21:31:58.344Z,0
2018-01-10T21:32:38.891Z,0
2018-01-10T21:33:19.537Z,0
2018-01-10T21:34:00.109Z,0
2018-01-10T21:34:40.592Z,0
2018-01-10T21:35:21.194Z,0
2018-01-10T21:36:01.737Z,0
2018-01-10T21:36:42.406Z,0
2018-01-10T21:37:23.077Z,0
2018-01-10T21:38:03.737Z,0
2018-01-10T21:38:44.306Z,0
2018-01-10T21:39:24.860Z,0
2018-01-10T21:40:05.461Z,0
2018-01-10T21:40:45.989Z,0
2018-01-10T21:41:26.465Z,0
2018-01-10T21:42:07.050Z,0
2018-01-10T21:42:47.621Z,0
2018-01-10T21:43:28.137Z,0
2018-01-10T21:44:08.666Z,0
2018-01-10T21:44:51.802Z,0
2018-01-10T21:45:32.378Z,0
2018-01-10T21:46:12.901Z,0
2018-01-10T21:46:53.475Z,0
2018-01-10T21:47:34.130Z,0
2018-01-10T21:48:14.647Z,0
2018-01-10T21:48:55.270Z,0
2018-01-10T21:49:35.891Z,0
2018-01-10T21:50:16.408Z,0
2018-01-10T21:50:56.941Z,0
2018-01-10T21:51:37.532Z,0
2018-01-10T21:52:18.102Z,0
2018-01-10T21:52:58.624Z,0
2018-01-10T21:53:39.175Z,0
2018-01-10T21:54:21.376Z,0
2018-01-10T21:55:00.769Z,0
2018-01-10T21:55:41.301Z,0
2018-01-10T21:56:21.850Z,0
2018-01-10T21:57:02.433Z,0
2018-01-10T21:57:43.381Z,0
2018-01-10T21:58:24.409Z,0
2018-01-10T21:59:05.184Z,0
2018-01-10T21:59:46.747Z,0
2018-01-10T22:00:27.882Z,0
2018-01-10T22:01:09.003Z,0
2018-01-10T22:01:49.752Z,0
2018-01-10T22:02:31.120Z,0
2018-01-10T22:03:12.103Z,0
2018-01-10T22:03:53.786Z,0
2018-01-10T22:06:22.440Z,0
2018-01-10T22:07:03.534Z,0
2018-01-10T22:07:45.223Z,0
2018-01-10T22:08:26.265Z,0
2018-01-10T22:09:07.382Z,0
2018-01-10T22:09:56.744Z,0
2018-01-10T22:10:37.619Z,0
2018-01-10T22:11:20.168Z,0
2018-01-10T22:12:02.517Z,0
2018-01-10T22:12:46.689Z,0
2018-01-10T22:13:27.954Z,0
2018-01-10T22:14:09.518Z,0
2018-01-10T22:14:51.874Z,0
2018-01-10T22:15:32.263Z,0
2018-01-10T22:16:13.630Z,0
2018-01-10T22:18:56.301Z,0
2018-01-10T22:19:37.407Z,0
2018-01-10T22:20:18.607Z,0
2018-01-10T22:21:00.012Z,0
2018-01-10T22:21:41.273Z,0
2018-01-10T22:22:22.108Z,0
2018-01-10T22:23:02.988Z,0
2018-01-10T22:23:43.579Z,0
2018-01-10T22:24:24.079Z,0
2018-01-10T22:25:04.659Z,0
2018-01-10T22:25:45.212Z,0
2018-01-10T22:26:25.778Z,0
2018-01-10T22:27:06.351Z,0
2018-01-10T22:27:46.857Z,0
2018-01-10T22:28:27.422Z,0
2018-01-10T22:29:07.971Z,0
2018-01-10T22:29:48.521Z,0
2018-01-10T22:30:29.065Z,0
2018-01-10T22:31:09.657Z,0
2018-01-10T22:31:50.126Z,0
2018-01-10T22:32:30.672Z,0
2018-01-10T22:33:11.246Z,0
2018-01-10T22:33:51.820Z,0
2018-01-10T22:34:32.452Z,0
2018-01-10T22:35:12.965Z,0
2018-01-10T22:35:53.521Z,0
2018-01-10T22:36:34.054Z,0
2018-01-10T22:37:14.569Z,0
2018-01-10T22:37:55.110Z,0
2018-01-10T22:38:35.675Z,0
2018-01-10T22:39:16.174Z,0
2018-01-10T22:39:56.726Z,0
2018-01-10T22:40:37.292Z,0
2018-01-10T22:41:17.806Z,0
2018-01-10T22:41:58.324Z,0
2018-01-10T22:42:38.903Z,0
2018-01-10T22:43:19.427Z,0
2018-01-10T22:43:59.966Z,0
2018-01-10T22:44:40.438Z,0
2018-01-10T22:45:20.969Z,0
2018-01-10T22:46:01.534Z,0
2018-01-10T22:46:42.065Z,0
2018-01-10T22:47:22.629Z,0
2018-01-10T22:48:03.275Z,0
2018-01-10T22:48:43.847Z,0
2018-01-10T22:49:24.366Z,0
2018-01-10T22:50:04.868Z,0
2018-01-10T22:50:45.455Z,0
2018-01-10T22:51:25.961Z,0
2018-01-10T22:52:06.495Z,0
2018-01-10T22:52:47.041Z,0
2018-01-10T22:53:27.594Z,0
2018-01-10T22:54:08.135Z,0
2018-01-10T22:54:48.937Z,0
2018-01-10T22:55:29.472Z,0
2018-01-10T22:56:10.064Z,0
2018-01-10T22:56:50.586Z,0
2018-01-10T22:57:31.110Z,0
2018-01-10T22:58:11.586Z,0
2018-01-10T22:58:52.184Z,0
2018-01-10T22:59:32.761Z,0
2018-01-10T23:00:13.264Z,0
2018-01-10T23:00:53.799Z,0
2018-01-10T23:01:34.357Z,0
2018-01-10T23:02:14.864Z,0
2018-01-10T23:02:55.426Z,0
2018-01-10T23:03:35.997Z,0
2018-01-10T23:04:16.527Z,0
2018-01-10T23:04:57.072Z,0
2018-01-10T23:05:37.605Z,0
2018-01-10T23:06:18.170Z,0
2018-01-10T23:06:58.775Z,0
2018-01-10T23:07:39.310Z,0
2018-01-10T23:08:19.835Z,0
2018-01-10T23:09:00.325Z,0
2018-01-10T23:09:40.868Z,0
2018-01-10T23:10:21.424Z,0
2018-01-10T23:11:01.984Z,0
2018-01-10T23:11:42.586Z,0
2018-01-10T23:12:23.150Z,0
2018-01-10T23:13:03.708Z,0
2018-01-10T23:13:44.254Z,0
2018-01-10T23:14:24.764Z,0
2018-01-10T23:15:05.320Z,0
2018-01-10T23:15:45.898Z,0
2018-01-10T23:16:26.423Z,0
2018-01-10T23:17:07.049Z,0
2018-01-10T23:17:47.574Z,0
2018-01-10T23:18:28.111Z,0
2018-01-10T23:19:08.648Z,0
2018-01-10T23:19:49.207Z,0
2018-01-10T23:20:29.753Z,0
2018-01-10T23:21:10.287Z,0
2018-01-10T23:21:50.795Z,0
2018-01-10T23:22:31.336Z,0
2018-01-10T23:23:11.823Z,0
2018-01-10T23:23:52.353Z,0
2018-01-10T23:24:32.953Z,0
2018-01-10T23:25:13.440Z,0
2018-01-10T23:25:53.997Z,0
2018-01-10T23:26:34.590Z,0
2018-01-10T23:27:15.065Z,0
2018-01-10T23:27:55.617Z,0
2018-01-10T23:28:36.186Z,0
2018-01-10T23:29:16.675Z,0
2018-01-10T23:29:57.200Z,0
2018-01-10T23:30:37.776Z,0
2018-01-10T23:31:18.264Z,0
2018-01-10T23:31:58.849Z,0
2018-01-10T23:32:39.368Z,0
2018-01-10T23:33:19.908Z,0
2018-01-10T23:34:00.430Z,0
2018-01-10T23:34:40.986Z,0
2018-01-10T23:35:21.493Z,0
2018-01-10T23:36:02.017Z,0
2018-01-10T23:36:42.561Z,0
2018-01-10T23:37:23.142Z,0
2018-01-10T23:38:03.655Z,0
2018-01-10T23:38:44.199Z,0
2018-01-10T23:39:24.776Z,0
2018-01-10T23:40:05.288Z,0
2018-01-10T23:40:45.843Z,0
2018-01-10T23:41:26.452Z,0
2018-01-10T23:42:06.950Z,0
2018-01-10T23:42:47.480Z,0
2018-01-10T23:43:28.036Z,0
2018-01-10T23:44:08.568Z,0
2018-01-10T23:44:49.112Z,0
2018-01-10T23:45:29.656Z,0
2018-01-10T23:46:10.223Z,0
2018-01-10T23:46:50.735Z,0
2018-01-10T23:47:31.281Z,0
2018-01-10T23:48:11.813Z,0
2018-01-10T23:48:52.329Z,0
2018-01-10T23:49:32.902Z,0
2018-01-10T23:50:13.423Z,0
2018-01-10T23:50:53.936Z,0
2018-01-10T23:51:34.469Z,0
2018-01-10T23:52:15.033Z,0
2018-01-10T23:52:55.618Z,0
2018-01-10T23:53:36.197Z,0
2018-01-10T23:54:16.725Z,0
2018-01-10T23:54:57.191Z,0
2018-01-10T23:55:37.751Z,0
2018-01-10T23:56:18.310Z,0
2018-01-10T23:56:58.806Z,0
2018-01-10T23:57:39.396Z,0
2018-01-10T23:58:19.915Z,0
2018-01-10T23:59:00.461Z,0
2018-01-10T23:59:40.984Z,0
